deformed-offering

Nearby METAR Reports

 

KNUQ - Moffett Nas/Mtn, California, USA
Distance from station: N 9mi, 14km
Updated: Wed, 23-Aug-2017 5:56am PDT
Overcast
Overcast
 Wind from NE
Wind: NE 6 mph , 9 km/h
Temperature: 63°F , 17°C
Dew Point: 59°F , 15°C
Humidity: 88%
Barometer: 29.98 inHg , 1015.2 hPa
Clouds: Overcast
Visibility: 7 miles , 11 km
Cloud details: Overcast 1000 ft
2017/08/23 12:56 KNUQ 231256Z 04005KT 7SM OVC010 17/15 A2998 RMK AO2 SLP156 T01720150
KSJC - San Jose, California, USA
Distance from station: NE 9mi, 14km
Updated: Wed, 23-Aug-2017 5:53am PDT
Mist, Overcast
Mist, Overcast
 Wind from WNW
Wind: WNW 5 mph , 7 km/h
Temperature: 63°F , 17°C
Dew Point: 59°F , 15°C
Humidity: 88%
Barometer: 29.98 inHg , 1015.2 hPa
Summary: Mist
Clouds: Overcast
Visibility: 4 miles , 6 km
Cloud details: Few Clouds 200 ft
Mostly Cloudy 800 ft
Overcast 1100 ft
2017/08/23 12:53 KSJC 231253Z 29004KT 4SM BR FEW002 BKN008 OVC011 17/15 A2998 RMK AO2 SLP150 T01720150
 
KRHV - San Jose/Reid, California, USA
Distance from station: ENE 12mi, 19km
Updated: Tue, 22-Aug-2017 8:47pm PDT
NOT Current
Clear
Clear
 Wind from NW
Wind: NW 7 mph , 11 km/h
Temperature: 70°F , 21°C
Dew Point: 59°F , 15°C
Humidity: 69%
Barometer: 30.01 inHg , 1016.3 hPa
Clouds: Clear
Visibility: 10 miles , 16 km
2017/08/23 03:47 KRHV 230347Z 31006KT 10SM SKC 21/15 A3001
KPAO - Palo Alto, California, USA
Distance from station: NNW 14mi, 23km
Updated: Tue, 22-Aug-2017 8:47pm PDT
NOT Current
Clear
Clear
 Wind from NNW
Wind: NNW 12 mph , 19 km/h
Temperature: 64°F , 18°C
Dew Point: 61°F , 16°C
Humidity: 88%
Barometer: 30.00 inHg , 1015.9 hPa
Clouds: Clear
Visibility: 10 miles , 16 km
2017/08/23 03:47 KPAO 230347Z 33010KT 10SM SKC 18/16 A3000 RMK LAST
 
KSQL - San Carlos Airpo, California, USA
Distance from station: NW 21mi, 34km
Updated: Wed, 23-Aug-2017 6:30am PDT
Overcast
Overcast
 Wind from NW
Wind: NW 7 mph , 11 km/h
Temperature: 59°F , 15°C
Dew Point: 55°F , 13°C
Humidity: 88%
Barometer: 29.99 inHg , 1015.6 hPa
Clouds: Overcast
Visibility: 10 miles , 16 km
Cloud details: Overcast 1100 ft
2017/08/23 13:30 KSQL 231330Z AUTO 32006KT 10SM OVC011 15/13 A2999 RMK AO2
KE16 - San Martin, California, USA
Distance from station: ESE 27mi, 43km
Updated: Wed, 23-Aug-2017 6:35am PDT
Overcast
Overcast
 Wind from SE
Wind: SE 3 mph , 6 km/h
Temperature: 59°F , 15°C
Dew Point: 55°F , 13°C
Humidity: 88%
Barometer: 30.01 inHg , 1016.3 hPa
Clouds: Overcast
Visibility: 7 miles , 11 km
Cloud details: Overcast 800 ft
2017/08/23 13:35 KE16 231335Z AUTO 14003KT 7SM OVC008 15/13 A3001 RMK AO2
 
KWVI - Watsonville, California, USA
Distance from station: SSE 27mi, 44km
Updated: Wed, 23-Aug-2017 5:53am PDT
Mist, Overcast
Mist, Overcast
 Wind from calm
Wind: Calm
Temperature: 59°F , 15°C
Dew Point: 57°F , 14°C
Humidity: 94%
Barometer: 29.99 inHg , 1015.6 hPa
Summary: Mist
Clouds: Overcast
Visibility: 5 miles , 8 km
Cloud details: Overcast 300 ft
2017/08/23 12:53 KWVI 231253Z AUTO 00000KT 5SM BR OVC003 15/14 A2999 RMK AO2 SLP156 T01500144 TSNO
KHWD - Hayward, California, USA
Distance from station: N 28mi, 44km
Updated: Wed, 23-Aug-2017 5:54am PDT
Overcast
Overcast
 Wind from WNW
Wind: WNW 6 mph , 9 km/h
Temperature: 61°F , 16°C
Dew Point: 54°F , 12°C
Humidity: 77%
Barometer: 29.98 inHg , 1015.2 hPa
Clouds: Overcast
Visibility: 8 miles , 13 km
Cloud details: Overcast 800 ft
2017/08/23 12:54 KHWD 231254Z AUTO 30005KT 8SM OVC008 16/12 A2998 RMK AO2 SLP160 T01610122
 
KSFO - San Francisco, California, USA
Distance from station: NW 30mi, 49km
Updated: Wed, 23-Aug-2017 5:56am PDT
Overcast
Overcast
 Wind from WSW
Wind: WSW 6 mph , 9 km/h
Temperature: 59°F , 15°C
Dew Point: 55°F , 13°C
Humidity: 88%
Barometer: 29.98 inHg , 1015.2 hPa
Clouds: Overcast
Visibility: 9 miles , 14 km
Cloud details: Partly Cloudy 800 ft
Overcast 1000 ft
2017/08/23 12:56 KSFO 231256Z 25005KT 9SM SCT008 OVC010 15/13 A2998 RMK AO2 SLP150 T01500128 $
KHAF - Half Moon Bay, California, USA
Distance from station: WNW 31mi, 50km
Updated: Wed, 23-Aug-2017 6:35am PDT
Mist, Overcast
Mist, Overcast
 Wind from calm
Wind: Calm
Temperature: 57°F , 14°C
Barometer: 29.97 inHg , 1014.9 hPa
Summary: Mist
Clouds: Overcast
Visibility: 3 miles , 5 km
Cloud details: Overcast 400 ft
2017/08/23 13:35 KHAF 231335Z AUTO 00000KT 3SM BR OVC004 14/ A2997 RMK AO2
 
KOAK - Oakland, California, USA
Distance from station: NNW 31mi, 50km
Updated: Wed, 23-Aug-2017 5:53am PDT
Overcast
Overcast
 Wind from WNW
Wind: WNW 8 mph , 13 km/h
Temperature: 59°F , 15°C
Dew Point: 57°F , 14°C
Humidity: 94%
Barometer: 29.98 inHg , 1015.2 hPa
Clouds: Overcast
Visibility: 7 miles , 11 km
Cloud details: Overcast 600 ft
2017/08/23 12:53 KOAK 231253Z 29007KT 7SM OVC006 15/14 A2998 RMK AO2 SLP152 T01500144 $
KLVK - Livermore, California, USA
Distance from station: NNE 31mi, 51km
Updated: Wed, 23-Aug-2017 6:44am PDT
Mist, Mostly cloudy
Mist, Mostly cloudy
 Wind from W
Wind: W 8 mph , 13 km/h
Temperature: 57°F , 14°C
Dew Point: 55°F , 13°C
Humidity: 94%
Barometer: 29.97 inHg , 1014.9 hPa
Summary: Mist
Clouds: Mostly Cloudy
Visibility: 4 miles , 6 km
Cloud details: Mostly Cloudy 900 ft
2017/08/23 13:44 KLVK 231344Z AUTO 27007KT 4SM BR BKN009 14/13 A2997 RMK AO2 T01440133
 
KCVH - Hollister Muni, California, USA
Distance from station: SE 42mi, 68km
Updated: Wed, 23-Aug-2017 6:30am PDT
Overcast
Overcast
 Wind from calm
Wind: Calm
Temperature: 57°F , 14°C
Dew Point: 55°F , 13°C
Humidity: 94%
Barometer: 30.00 inHg , 1015.9 hPa
Clouds: Overcast
Visibility: 1 mile , 2 km
Cloud details: Overcast 100 ft
2017/08/23 13:30 KCVH 231330Z AUTO 00000KT 1SM OVC001 14/13 A3000 RMK AO1
KSNS - Salinas, California, USA
Distance from station: SSE 48mi, 77km
Updated: Wed, 23-Aug-2017 5:53am PDT
Overcast
Overcast
 Wind from WSW
Wind: WSW 5 mph , 7 km/h
Temperature: 59°F , 15°C
Dew Point: 57°F , 14°C
Humidity: 94%
Barometer: 29.98 inHg , 1015.2 hPa
Clouds: Overcast
Visibility: 5 miles , 8 km
Cloud details: Overcast 400 ft
2017/08/23 12:53 KSNS 231253Z 24004KT 5SM OVC004 15/14 A2998 RMK AO2 SLP162 T01500144
 
KMRY - Monterey, California, USA
Distance from station: SSE 49mi, 78km
Updated: Wed, 23-Aug-2017 5:54am PDT
Overcast
Overcast
 Wind from WSW
Wind: WSW 5 mph , 7 km/h
Temperature: 59°F , 15°C
Dew Point: 57°F , 14°C
Humidity: 94%
Barometer: 29.99 inHg , 1015.6 hPa
Clouds: Overcast
Visibility: 7 miles , 11 km
Cloud details: Overcast 400 ft
2017/08/23 12:54 KMRY 231254Z AUTO 25004KT 7SM OVC004 15/14 A2999 RMK AO2 SLP167 T01500139
KCCR - Concord, California, USA
Distance from station: N 50mi, 81km
Updated: Wed, 23-Aug-2017 5:53am PDT
Clear
Clear
 Wind from calm
Wind: Calm
Temperature: 61°F , 16°C
Dew Point: 55°F , 13°C
Humidity: 83%
Barometer: 29.95 inHg , 1014.2 hPa
Clouds: Clear
Visibility: 8 miles , 13 km
2017/08/23 12:53 KCCR 231253Z AUTO 00000KT 8SM CLR 16/13 A2995 RMK AO2 SLP129 T01560128
deformed-offering